Meteo Giornale » Osservazioni meteo Stati Uniti (USA) » Fort Stockton-Pecos
ore: 13:53 - Osservazioni Meteo Fort Stockton-Pecos
Lat. 30° 54' N Lon. 102° 55' W Alt. 917 metri s.l.m.
35 °C
Nuvoloso
Temp. 24 Ore
24 °C
36 °C
Nord
11.1 Km/h
Dew point 13 °C
Umidità 26 %
Visibilità 10 Km
Il sole sorge alle ore 07:28
Il sole tramonta alle ore 20:15
| Data e Ora | Cielo e Fenomeni | T °C | DP °C | Um. % | Pres. hPa | Vis. km | Vento km/h | |
|---|---|---|---|---|---|---|---|---|
| Oggi h: 13:53 | Nuvoloso | 35 | 13 | 26 | 1017 | 10 | N 11.1 | |
| Oggi h: 12:53 | Nuvoloso | 33 | 15 | 33 | 1017 | 10 | SE 11.1 | |
| Oggi h: 11:53 | Sereno | 32 | 16 | 38 | 1018 | 10 | SE 20.3 | |
| Oggi h: 10:53 | Sereno | 29 | 17 | 48 | 1018 | 10 | S/SE 22.2 | |
| Oggi h: 09:53 | Sereno | 27 | 19 | 61 | 1018 | 10 | S/SE 24 | |
| Oggi h: 08:53 | Sereno | 25 | 19 | 69 | 1018 | 10 | S/SE 24 | |
| Oggi h: 07:53 | Sereno | 24 | 19 | 73 | 1018 | 10 | S/SE 16.7 | |
| Oggi h: 06:53 | Nuvoloso | 24 | 18 | 69 | 1017 | 10 | S/SE 16.7 | |
| Oggi h: 05:53 | Sereno | 24 | 16 | 60 | 1017 | 10 | S/SO 7.4 | |
| Oggi h: 04:53 | Sereno | 26 | 16 | 54 | 1016 | 10 | SE 14.8 | |
| Oggi h: 03:53 | Sereno | 27 | 16 | 50 | 1016 | 10 | S/SE 20.3 | |
| Oggi h: 02:53 | Sereno | 27 | 16 | 50 | 1016 | 10 | SE 25.9 | |
| Oggi h: 01:53 | Sereno | 28 | 16 | 48 | 1016 | 10 | SE 18.5 | |
| Oggi h: 00:53 | Sereno | 28 | 16 | 48 | 1016 | 10 | SE 13 | |
| Ieri h: 23:53 | Sereno | 29 | 16 | 45 | 1016 | 10 | S/SE 14.8 | |
| Ieri h: 22:53 | Nuvoloso | 29 | 15 | 42 | 1016 | 10 | S/SE 16.7 | |
| Ieri h: 21:53 | Poco Nuvoloso | 31 | 14 | 35 | 1015 | 10 | S/SE 25.9 | |
| Ieri h: 20:53 | Sereno | 32 | 14 | 33 | 1014 | 10 | SE 29.6 | |
| Ieri h: 19:53 | Sereno | 33 | 13 | 29 | 1013 | 10 | SE 27.8 | |
| Ieri h: 18:53 | Sereno | 34 | 14 | 30 | 1013 | 10 | SE 33.3 | |
| Ieri h: 17:53 | Poco Nuvoloso | 36 | 15 | 28 | 1013 | 10 | E/SE 27.8 | |
| Ieri h: 16:53 | Sereno | 35 | 16 | 32 | 1013 | 10 | E/SE 31.5 | |
| Ieri h: 15:53 | Sereno | 36 | 16 | 30 | 1014 | 10 | E/SE 31.5 | |
| Ieri h: 15:26 | Nuvoloso | 36 | 16 | 30 | 1015 | 10 | SE 25.9 | |
| Ieri h: 15:01 | Molto Nuvoloso | 34 | 16 | 34 | 1015 | 10 | E/NE 20.3 | |
| Ieri h: 14:53 | Molto Nuvoloso | 36 | 16 | 30 | 1015 | 10 | E 22.2 | |



